createdAt,value
2023-04-16T00:01:34.756Z,101368.47
2023-04-16T00:04:01.397Z,101372.09
2023-04-16T00:06:28.608Z,101373.41
2023-04-16T00:08:55.262Z,101379.09
2023-04-16T00:11:22.110Z,101383.22
2023-04-16T00:13:49.020Z,101391.47
2023-04-16T00:16:15.697Z,101380.53
2023-04-16T00:18:42.272Z,101389.09
2023-04-16T00:21:08.738Z,101388.31
2023-04-16T00:23:35.216Z,101383.53
2023-04-16T00:26:01.685Z,101386.38
2023-04-16T00:28:28.114Z,101381.94
2023-04-16T00:30:55.667Z,101380.00
2023-04-16T00:33:22.608Z,101385.72
2023-04-16T00:35:49.035Z,101378.41
2023-04-16T00:38:15.882Z,101386.50
2023-04-16T00:40:42.354Z,101379.38
2023-04-16T00:43:08.793Z,101393.97
2023-04-16T00:45:36.167Z,101383.19
2023-04-16T00:48:03.301Z,101387.59
2023-04-16T00:50:29.942Z,101384.75
2023-04-16T00:52:56.808Z,101391.28
2023-04-16T00:55:23.299Z,101384.75
2023-04-16T00:57:49.757Z,101388.06
2023-04-16T01:00:16.656Z,101392.22
2023-04-16T01:02:43.279Z,101386.97
2023-04-16T01:05:09.949Z,101384.13
2023-04-16T01:07:36.779Z,101383.00
2023-04-16T01:10:04.066Z,101392.34
2023-04-16T01:12:30.605Z,101380.28
2023-04-16T01:14:57.229Z,101386.00
2023-04-16T01:17:23.752Z,101389.63
2023-04-16T01:19:50.291Z,101392.19
2023-04-16T01:22:17.312Z,101399.47
2023-04-16T01:24:44.998Z,101390.09
2023-04-16T01:27:11.464Z,101392.63
2023-04-16T01:29:37.961Z,101392.31
2023-04-16T01:32:04.414Z,101391.03
2023-04-16T01:34:33.549Z,101397.69
2023-04-16T01:37:00.192Z,101392.78
2023-04-16T01:39:27.236Z,101399.28
2023-04-16T01:41:53.693Z,101400.53
2023-04-16T01:44:20.202Z,101402.63
2023-04-16T01:46:46.691Z,101404.22
2023-04-16T01:49:13.702Z,101405.16
2023-04-16T01:51:40.280Z,101410.06
2023-04-16T01:54:06.803Z,101405.63
2023-04-16T01:56:33.592Z,101410.06
2023-04-16T01:59:00.312Z,101409.25
2023-04-16T02:01:32.924Z,101406.88
2023-04-16T02:03:59.837Z,101416.25
2023-04-16T02:06:27.374Z,101417.50
2023-04-16T02:08:53.986Z,101417.97
2023-04-16T02:11:21.143Z,101418.44
2023-04-16T02:13:49.042Z,101417.66
2023-04-16T02:16:17.394Z,101412.88
2023-04-16T02:18:49.503Z,101408.41
2023-04-16T02:21:17.943Z,101409.66
2023-04-16T02:23:47.548Z,101416.97
2023-04-16T02:26:14.063Z,101426.00
2023-04-16T02:28:41.015Z,101422.38
2023-04-16T02:31:09.735Z,101428.06
2023-04-16T02:33:41.167Z,101421.59
2023-04-16T02:36:07.952Z,101409.03
2023-04-16T02:38:34.473Z,101416.34
2023-04-16T02:41:01.003Z,101416.47
2023-04-16T02:43:28.613Z,101426.16
2023-04-16T02:45:55.228Z,101424.56
2023-04-16T02:48:22.078Z,101427.09
2023-04-16T02:50:48.691Z,101427.88
2023-04-16T02:53:15.416Z,101428.34
2023-04-16T02:55:42.169Z,101430.41
2023-04-16T02:58:08.671Z,101434.50
2023-04-16T03:00:35.410Z,101437.50
2023-04-16T03:03:02.411Z,101436.25
2023-04-16T03:05:29.049Z,101439.91
2023-04-16T03:07:56.787Z,101440.38
2023-04-16T03:10:24.126Z,101437.19
2023-04-16T03:12:51.027Z,101442.91
2023-04-16T03:15:17.695Z,101436.41
2023-04-16T03:17:44.399Z,101435.59
2023-04-16T03:20:11.361Z,101437.31
2023-04-16T03:22:39.541Z,101442.22
2023-04-16T03:25:07.836Z,101445.53
2023-04-16T03:27:35.258Z,101449.22
2023-04-16T03:30:02.541Z,101445.06
2023-04-16T03:32:29.798Z,101446.34
2023-04-16T03:34:56.382Z,101445.53
2023-04-16T03:37:23.114Z,101437.44
2023-04-16T03:39:50.715Z,101441.91
2023-04-16T03:42:17.513Z,101443.16
2023-04-16T03:44:43.996Z,101437.59
2023-04-16T03:47:11.294Z,101440.75
2023-04-16T03:49:38.007Z,101451.38
2023-04-16T03:52:04.743Z,101454.84
2023-04-16T03:54:31.432Z,101455.63
2023-04-16T03:57:08.878Z,101457.22
2023-04-16T03:59:35.738Z,101459.75
2023-04-16T04:02:02.347Z,101463.88
2023-04-16T04:04:29.019Z,101457.38
2023-04-16T04:06:57.286Z,101450.06
2023-04-16T04:09:26.240Z,101464.31
2023-04-16T04:11:53.048Z,101455.78
2023-04-16T04:14:19.626Z,101465.53
2023-04-16T04:16:46.281Z,101458.28
2023-04-16T04:19:14.460Z,101461.13
2023-04-16T04:21:41.426Z,101463.97
2023-04-16T04:24:08.771Z,101465.22
2023-04-16T04:26:35.474Z,101462.38
2023-04-16T04:29:02.361Z,101466.47
2023-04-16T04:31:29.990Z,101472.19
2023-04-16T04:33:56.738Z,101467.44
2023-04-16T04:36:23.293Z,101469.31
2023-04-16T04:38:50.081Z,101473.78
2023-04-16T04:41:17.140Z,101474.69
2023-04-16T04:43:46.873Z,101477.88
2023-04-16T04:46:13.594Z,101477.09
2023-04-16T04:48:40.940Z,101477.56
2023-04-16T04:51:07.585Z,101471.53
2023-04-16T04:53:34.164Z,101475.53
2023-04-16T04:56:09.150Z,101486.13
2023-04-16T04:58:38.698Z,101476.78
2023-04-16T05:01:05.303Z,101486.13
2023-04-16T05:03:32.041Z,101493.44
2023-04-16T05:05:58.711Z,101486.13
2023-04-16T05:08:25.360Z,101484.53
2023-04-16T05:10:52.119Z,101491.81
2023-04-16T05:13:18.736Z,101491.81
2023-04-16T05:15:45.805Z,101496.28
2023-04-16T05:18:12.258Z,101496.75
2023-04-16T05:20:38.838Z,101498.00
2023-04-16T05:23:05.324Z,101503.22
2023-04-16T05:25:31.791Z,101496.28
2023-04-16T05:27:58.280Z,101516.25
2023-04-16T05:30:24.852Z,101506.91
2023-04-16T05:32:51.667Z,101511.34
2023-04-16T05:35:18.208Z,101514.19
2023-04-16T05:37:44.729Z,101517.81
2023-04-16T05:40:13.777Z,101517.03
2023-04-16T05:42:40.326Z,101532.09
2023-04-16T05:45:07.278Z,101519.22
2023-04-16T05:47:33.848Z,101524.34
2023-04-16T05:50:00.363Z,101531.75
2023-04-16T05:52:26.942Z,101534.94
2023-04-16T05:54:53.423Z,101532.09
2023-04-16T05:57:19.909Z,101529.38
2023-04-16T05:59:46.452Z,101541.47
2023-04-16T06:02:13.088Z,101544.31
2023-04-16T06:04:39.665Z,101547.16
2023-04-16T06:07:06.362Z,101541.47
2023-04-16T06:09:32.836Z,101545.09
2023-04-16T06:11:59.741Z,101549.56
2023-04-16T06:14:26.278Z,101546.34
2023-04-16T06:16:52.817Z,101552.41
2023-04-16T06:19:19.272Z,101555.25
2023-04-16T06:21:45.905Z,101557.31
2023-04-16T06:24:13.198Z,101559.38
2023-04-16T06:26:39.869Z,101554.84
2023-04-16T06:29:06.335Z,101558.47
2023-04-16T06:31:32.957Z,101564.19
2023-04-16T06:33:59.506Z,101561.31
2023-04-16T06:36:27.561Z,101562.94
2023-04-16T06:38:54.083Z,101568.63
2023-04-16T06:41:22.663Z,101570.22
2023-04-16T06:43:49.305Z,101570.56
2023-04-16T06:46:15.876Z,101576.38
2023-04-16T06:48:42.585Z,101581.16
2023-04-16T06:51:09.152Z,101582.78
2023-04-16T06:53:37.466Z,101581.97
2023-04-16T06:56:04.351Z,101580.38
2023-04-16T06:58:30.936Z,101588.03
2023-04-16T07:00:57.488Z,101581.06
2023-04-16T07:03:24.151Z,101586.78
2023-04-16T07:05:50.958Z,101586.78
2023-04-16T07:08:17.402Z,101601.38
2023-04-16T07:10:43.992Z,101598.50
2023-04-16T07:13:10.681Z,101595.66
2023-04-16T07:15:37.339Z,101602.16
2023-04-16T07:18:03.909Z,101603.75
2023-04-16T07:20:30.489Z,101607.41
2023-04-16T07:22:59.210Z,101593.13
2023-04-16T07:25:26.881Z,101605.78
2023-04-16T07:27:53.458Z,101607.84
2023-04-16T07:30:19.912Z,101607.06
2023-04-16T07:32:46.519Z,101608.66
2023-04-16T07:35:13.014Z,101611.84
2023-04-16T07:37:39.411Z,101614.72
2023-04-16T07:40:06.863Z,101612.66
2023-04-16T07:42:33.301Z,101608.53
2023-04-16T07:44:59.754Z,101616.66
2023-04-16T07:47:27.116Z,101622.34
2023-04-16T07:49:53.775Z,101617.44
2023-04-16T07:52:20.386Z,101613.34
2023-04-16T07:54:47.078Z,101632.03
2023-04-16T07:57:13.464Z,101628.72
2023-04-16T07:59:40.019Z,101624.63
2023-04-16T08:02:07.274Z,101626.19
2023-04-16T08:04:33.950Z,101627.47
2023-04-16T08:07:00.769Z,101629.84
2023-04-16T08:09:28.492Z,101641.59
2023-04-16T08:11:55.306Z,101639.53
2023-04-16T08:14:21.804Z,101644.31
2023-04-16T08:16:48.449Z,101644.00
2023-04-16T08:19:14.998Z,101635.75
2023-04-16T08:21:41.636Z,101637.38
2023-04-16T08:24:08.038Z,101646.25
2023-04-16T08:26:34.695Z,101645.81
2023-04-16T08:29:01.097Z,101659.94
2023-04-16T08:31:27.730Z,101658.69
2023-04-16T08:33:54.187Z,101657.44
2023-04-16T08:36:20.843Z,101657.44
2023-04-16T08:38:47.603Z,101661.41
2023-04-16T08:41:14.914Z,101666.34
2023-04-16T08:43:45.443Z,101671.13
2023-04-16T08:46:12.942Z,101674.75
2023-04-16T08:48:42.766Z,101669.06
2023-04-16T08:51:10.958Z,101666.06
2023-04-16T08:53:49.773Z,101669.38
2023-04-16T08:56:19.969Z,101669.75
2023-04-16T08:58:48.744Z,101682.63
2023-04-16T09:01:18.001Z,101683.75
2023-04-16T09:03:47.087Z,101672.00
2023-04-16T09:06:15.865Z,101679.63
2023-04-16T09:08:44.280Z,101688.88
2023-04-16T09:11:11.912Z,101686.81
2023-04-16T09:13:38.400Z,101690.47
2023-04-16T09:16:07.280Z,101692.41
2023-04-16T09:18:33.727Z,101686.38
2023-04-16T09:21:00.316Z,101695.13
2023-04-16T09:23:26.787Z,101691.47
2023-04-16T09:25:53.200Z,101693.09
2023-04-16T09:28:42.504Z,101701.16
2023-04-16T09:31:10.597Z,101696.59
2023-04-16T09:33:37.086Z,101705.47
2023-04-16T09:36:03.780Z,101701.84
2023-04-16T09:38:47.811Z,101702.31
2023-04-16T09:41:16.598Z,101706.16
2023-04-16T09:44:04.111Z,101702.53
2023-04-16T09:46:33.618Z,101710.16
2023-04-16T09:49:08.486Z,101706.50
2023-04-16T09:51:41.297Z,101710.03
2023-04-16T09:54:08.876Z,101712.75
2023-04-16T09:56:46.605Z,101707.03
2023-04-16T09:59:25.261Z,101710.22
2023-04-16T10:01:57.389Z,101705.78
2023-04-16T10:04:50.469Z,101714.22
2023-04-16T10:07:17.537Z,101726.31
2023-04-16T10:09:44.405Z,101724.25
2023-04-16T10:12:12.789Z,101727.78
2023-04-16T10:14:40.001Z,101726.06
2023-04-16T10:17:07.445Z,101735.75
2023-04-16T10:19:35.332Z,101744.66
2023-04-16T10:22:02.651Z,101742.13
2023-04-16T10:24:31.101Z,101749.47
2023-04-16T10:26:58.319Z,101749.78
2023-04-16T10:29:27.114Z,101749.31
2023-04-16T10:31:55.280Z,101744.53
2023-04-16T10:34:23.369Z,101756.97
2023-04-16T10:36:54.967Z,101748.53
2023-04-16T10:39:23.618Z,101744.72
2023-04-16T10:41:51.479Z,101753.97
2023-04-16T10:44:19.323Z,101752.72
2023-04-16T10:46:49.820Z,101750.31
2023-04-16T10:49:22.298Z,101747.31
2023-04-16T10:52:17.082Z,101750.19
2023-04-16T10:54:43.882Z,101756.22
2023-04-16T10:57:16.053Z,101753.34
2023-04-16T10:59:44.012Z,101758.94
2023-04-16T11:02:16.004Z,101746.72
2023-04-16T11:04:45.215Z,101756.28
2023-04-16T11:07:13.802Z,101756.59
2023-04-16T11:09:59.851Z,101755.34
2023-04-16T11:12:34.178Z,101760.59
2023-04-16T11:15:11.975Z,101762.06
2023-04-16T11:17:46.544Z,101756.66
2023-04-16T11:20:21.534Z,101748.09
2023-04-16T11:22:55.985Z,101758.59
2023-04-16T11:25:24.178Z,101759.25
2023-04-16T11:27:51.804Z,101764.03
2023-04-16T11:30:27.775Z,101777.44
2023-04-16T11:32:54.456Z,101774.09
2023-04-16T11:35:21.058Z,101767.91
2023-04-16T11:37:50.511Z,101769.06
2023-04-16T11:40:17.013Z,101768.91
2023-04-16T11:42:44.474Z,101774.47
2023-04-16T11:45:12.398Z,101780.56
2023-04-16T11:47:55.439Z,101773.09
2023-04-16T11:50:24.580Z,101772.16
2023-04-16T11:52:53.113Z,101765.63
2023-04-16T11:55:20.861Z,101772.34
2023-04-16T11:57:47.804Z,101773.44
2023-04-16T12:00:15.334Z,101778.25
2023-04-16T12:02:49.919Z,101778.56
2023-04-16T12:05:33.870Z,101783.34
2023-04-16T12:08:03.246Z,101779.53
2023-04-16T12:10:31.171Z,101779.38
2023-04-16T12:13:14.424Z,101788.78
2023-04-16T12:15:55.940Z,101787.50
2023-04-16T12:18:24.272Z,101791.81
2023-04-16T12:20:51.302Z,101797.06
2023-04-16T12:23:29.566Z,101791.34
2023-04-16T12:26:02.135Z,101791.19
2023-04-16T12:28:30.029Z,101789.47
2023-04-16T12:30:56.980Z,101788.22
2023-04-16T12:33:23.718Z,101792.66
2023-04-16T12:35:50.661Z,101797.91
2023-04-16T12:38:17.377Z,101801.59
2023-04-16T12:40:44.123Z,101802.84
2023-04-16T12:43:10.726Z,101799.97
2023-04-16T12:45:38.892Z,101804.78
2023-04-16T12:48:05.961Z,101800.78
2023-04-16T12:50:32.795Z,101800.78
2023-04-16T12:52:59.699Z,101811.75
2023-04-16T12:55:26.242Z,101800.13
2023-04-16T12:57:53.024Z,101805.72
2023-04-16T13:00:20.077Z,101797.13
2023-04-16T13:02:47.136Z,101805.06
2023-04-16T13:05:16.496Z,101809.84
2023-04-16T13:07:43.194Z,101804.09
2023-04-16T13:10:10.471Z,101808.25
2023-04-16T13:12:37.203Z,101800.47
2023-04-16T13:15:04.304Z,101809.38
2023-04-16T13:17:31.184Z,101800.47
2023-04-16T13:19:57.715Z,101810.66
2023-04-16T13:22:24.346Z,101811.44
2023-04-16T13:24:50.900Z,101813.03
2023-04-16T13:27:17.907Z,101811.44
2023-04-16T13:29:44.852Z,101814.63
2023-04-16T13:32:13.704Z,101824.03
2023-04-16T13:34:40.321Z,101809.84
2023-04-16T13:37:07.029Z,101824.81
2023-04-16T13:39:33.772Z,101820.22
2023-04-16T13:42:00.373Z,101812.91
2023-04-16T13:44:26.888Z,101828.31
2023-04-16T13:46:53.573Z,101823.41
2023-04-16T13:49:20.210Z,101825.44
2023-04-16T13:51:47.007Z,101815.91
2023-04-16T13:54:13.614Z,101820.84
2023-04-16T13:56:40.877Z,101828.97
2023-04-16T13:59:08.129Z,101826.44
2023-04-16T14:01:34.873Z,101820.72
2023-04-16T14:04:06.098Z,101826.78
2023-04-16T14:06:34.339Z,101819.75
2023-04-16T14:09:01.299Z,101829.97
2023-04-16T14:11:28.062Z,101831.53
2023-04-16T14:13:54.831Z,101827.41
2023-04-16T14:16:21.522Z,101831.88
2023-04-16T14:18:48.136Z,101823.59
2023-04-16T14:21:14.605Z,101820.28
2023-04-16T14:23:41.212Z,101826.78
2023-04-16T14:26:08.111Z,101823.94
2023-04-16T14:28:35.774Z,101828.41
2023-04-16T14:31:02.511Z,101836.03
2023-04-16T14:33:29.273Z,101833.19
2023-04-16T14:35:55.989Z,101832.41
2023-04-16T14:38:22.673Z,101836.34
2023-04-16T14:40:49.384Z,101835.56
2023-04-16T14:43:16.043Z,101831.56
2023-04-16T14:45:42.638Z,101830.63
2023-04-16T14:48:09.340Z,101831.41
2023-04-16T14:50:37.944Z,101822.50
2023-04-16T14:53:05.571Z,101828.09
2023-04-16T14:55:32.626Z,101821.56
2023-04-16T14:57:59.756Z,101830.94
2023-04-16T15:00:27.463Z,101835.41
2023-04-16T15:02:57.825Z,101830.47
2023-04-16T15:05:24.575Z,101833.34
2023-04-16T15:07:51.163Z,101831.28
2023-04-16T15:10:17.848Z,101835.41
2023-04-16T15:12:44.281Z,101831.28
2023-04-16T15:15:11.321Z,101836.22
2023-04-16T15:17:37.926Z,101844.34
2023-04-16T15:20:08.242Z,101840.22
2023-04-16T15:22:34.909Z,101839.88
2023-04-16T15:25:01.368Z,101837.03
2023-04-16T15:27:27.937Z,101834.63
2023-04-16T15:29:54.423Z,101835.72
2023-04-16T15:32:20.989Z,101837.81
2023-04-16T15:34:47.497Z,101844.34
2023-04-16T15:37:14.009Z,101841.47
2023-04-16T15:39:40.751Z,101851.66
2023-04-16T15:42:07.824Z,101850.06
2023-04-16T15:44:34.894Z,101850.06
2023-04-16T15:47:01.391Z,101842.75
2023-04-16T15:49:28.004Z,101850.06
2023-04-16T15:51:55.695Z,101841.16
2023-04-16T15:54:22.183Z,101848.47
2023-04-16T15:56:48.722Z,101855.00
2023-04-16T15:59:15.128Z,101858.34
2023-04-16T16:01:41.563Z,101850.69
2023-04-16T16:04:08.465Z,101855.16
2023-04-16T16:06:35.812Z,101864.06
2023-04-16T16:09:02.254Z,101858.81
2023-04-16T16:11:28.821Z,101861.69
2023-04-16T16:13:55.395Z,101858.81
2023-04-16T16:16:22.046Z,101865.78
2023-04-16T16:18:48.756Z,101853.56
2023-04-16T16:21:15.277Z,101860.88
2023-04-16T16:23:42.045Z,101859.44
2023-04-16T16:26:09.204Z,101865.00
2023-04-16T16:28:37.825Z,101858.97
2023-04-16T16:31:06.035Z,101862.63
2023-04-16T16:33:33.207Z,101858.97
2023-04-16T16:35:59.772Z,101861.81
2023-04-16T16:38:26.296Z,101865.94
2023-04-16T16:40:52.770Z,101864.69
2023-04-16T16:43:20.239Z,101863.09
2023-04-16T16:45:47.161Z,101867.56
2023-04-16T16:48:13.714Z,101864.69
2023-04-16T16:50:40.230Z,101867.88
2023-04-16T16:53:06.743Z,101880.63
2023-04-16T16:55:33.292Z,101872.34
2023-04-16T16:57:59.830Z,101876.78
2023-04-16T17:00:26.641Z,101878.72
2023-04-16T17:02:53.449Z,101878.25
2023-04-16T17:05:20.378Z,101877.75
2023-04-16T17:07:46.979Z,101879.38
2023-04-16T17:10:19.991Z,101879.38
2023-04-16T17:12:51.016Z,101880.97
2023-04-16T17:15:20.520Z,101885.41
2023-04-16T17:17:48.198Z,101879.69
2023-04-16T17:20:15.724Z,101891.16
2023-04-16T17:22:42.400Z,101892.44
2023-04-16T17:25:09.245Z,101888.28
2023-04-16T17:27:35.767Z,101888.44
2023-04-16T17:30:03.479Z,101892.44
2023-04-16T17:32:32.386Z,101890.16
2023-04-16T17:35:00.382Z,101900.69
2023-04-16T17:37:27.281Z,101909.28
2023-04-16T17:39:53.701Z,101907.38
2023-04-16T17:42:20.461Z,101911.84
2023-04-16T17:44:47.056Z,101917.25
2023-04-16T17:47:13.482Z,101921.38
2023-04-16T17:49:39.955Z,101918.97
2023-04-16T17:52:06.715Z,101926.78
2023-04-16T17:54:33.135Z,101929.31
2023-04-16T17:56:59.621Z,101930.59
2023-04-16T17:59:26.259Z,101936.31
2023-04-16T18:01:52.964Z,101932.78
2023-04-16T18:04:19.837Z,101934.84
2023-04-16T18:06:46.551Z,101946.31
2023-04-16T18:09:14.225Z,101943.91
2023-04-16T18:11:40.733Z,101946.09
2023-04-16T18:14:09.773Z,101946.72
2023-04-16T18:16:36.763Z,101946.59
2023-04-16T18:19:03.289Z,101962.97
2023-04-16T18:21:30.340Z,101954.84
2023-04-16T18:23:57.316Z,101960.25
2023-04-16T18:26:25.273Z,101961.19
2023-04-16T18:28:51.901Z,101971.38
2023-04-16T18:31:21.201Z,101969.94
2023-04-16T18:33:56.269Z,101969.94
2023-04-16T18:36:24.408Z,101973.72
2023-04-16T18:39:15.152Z,101972.13
2023-04-16T18:41:38.062Z,101977.50
2023-04-16T18:44:04.562Z,101978.44
2023-04-16T18:46:31.028Z,101978.44
2023-04-16T18:48:59.018Z,101992.44
2023-04-16T18:51:27.027Z,101985.09
2023-04-16T18:53:53.473Z,101991.75
2023-04-16T18:56:19.920Z,101993.38
2023-04-16T18:58:47.566Z,101994.31
2023-04-16T19:01:14.141Z,102002.56
2023-04-16T19:03:40.768Z,101997.78
2023-04-16T19:06:07.569Z,101998.56
2023-04-16T19:08:34.007Z,102001.88
2023-04-16T19:11:00.487Z,101998.69
2023-04-16T19:13:27.211Z,102002.03
2023-04-16T19:16:00.840Z,102004.56
2023-04-16T19:18:27.814Z,102007.88
2023-04-16T19:21:01.147Z,102016.13
2023-04-16T19:23:28.640Z,102018.66
2023-04-16T19:25:56.700Z,102016.25
2023-04-16T19:28:23.876Z,102016.25
2023-04-16T19:30:51.318Z,102014.66
2023-04-16T19:33:18.516Z,102016.38
2023-04-16T19:35:45.989Z,102016.06
2023-04-16T19:38:12.529Z,102009.97
2023-04-16T19:40:39.886Z,102013.75
2023-04-16T19:43:06.365Z,102023.16
2023-04-16T19:45:32.909Z,102019.50
2023-04-16T19:47:59.459Z,102022.47
2023-04-16T19:50:25.994Z,102021.38
2023-04-16T19:52:52.411Z,102023.78
2023-04-16T19:55:19.078Z,102028.34
2023-04-16T19:57:47.843Z,102022.63
2023-04-16T20:00:14.762Z,102023.06
2023-04-16T20:02:41.391Z,102022.28
2023-04-16T20:05:08.398Z,102019.44
2023-04-16T20:07:34.822Z,102021.94
2023-04-16T20:10:02.706Z,102015.88
2023-04-16T20:12:29.180Z,102013.16
2023-04-16T20:14:55.982Z,102016.81
2023-04-16T20:17:22.656Z,102012.91
2023-04-16T20:19:49.488Z,102027.91
2023-04-16T20:22:18.223Z,102023.22
2023-04-16T20:24:47.767Z,102035.78
2023-04-16T20:27:15.208Z,102025.25
2023-04-16T20:29:42.051Z,102031.94
2023-04-16T20:32:08.490Z,102034.78
2023-04-16T20:34:34.905Z,102021.41
2023-04-16T20:37:01.371Z,102034.88
2023-04-16T20:39:27.799Z,102032.47
2023-04-16T20:41:57.133Z,102029.28
2023-04-16T20:44:26.370Z,102030.22
2023-04-16T20:46:54.917Z,102035.13
2023-04-16T20:49:21.515Z,102034.34
2023-04-16T20:51:48.123Z,102037.75
2023-04-16T20:54:14.560Z,102036.50
2023-04-16T20:56:41.545Z,102030.09
2023-04-16T20:59:08.823Z,102034.56
2023-04-16T21:01:35.447Z,102032.97
2023-04-16T21:04:02.328Z,102037.09
2023-04-16T21:06:32.716Z,102041.34
2023-04-16T21:08:59.125Z,102041.66
2023-04-16T21:11:26.167Z,102042.13
2023-04-16T21:13:52.557Z,102044.97
2023-04-16T21:16:19.048Z,102038.94
2023-04-16T21:18:45.509Z,102043.50
2023-04-16T21:21:11.940Z,102046.34
2023-04-16T21:23:38.418Z,102049.66
2023-04-16T21:26:04.854Z,102041.56
2023-04-16T21:28:31.302Z,102040.75
2023-04-16T21:30:57.726Z,102054.72
2023-04-16T21:33:24.152Z,102051.88
2023-04-16T21:35:52.201Z,102048.66
2023-04-16T21:38:19.418Z,102050.25
2023-04-16T21:40:50.345Z,102057.25
2023-04-16T21:43:17.807Z,102058.50
2023-04-16T21:45:44.261Z,102058.16
2023-04-16T21:48:10.804Z,102055.75
2023-04-16T21:50:37.505Z,102060.66
2023-04-16T21:53:06.547Z,102057.56
2023-04-16T21:55:34.650Z,102052.66
2023-04-16T21:58:01.642Z,102059.97
2023-04-16T22:00:28.585Z,102062.50
2023-04-16T22:02:56.107Z,102060.91
2023-04-16T22:05:25.664Z,102061.81
2023-04-16T22:07:52.990Z,102065.44
2023-04-16T22:10:19.537Z,102067.97
2023-04-16T22:12:46.542Z,102063.50
2023-04-16T22:15:13.680Z,102057.00
2023-04-16T22:17:40.898Z,102066.81
2023-04-16T22:20:12.905Z,102059.53
2023-04-16T22:22:40.878Z,102069.00
2023-04-16T22:25:07.672Z,102065.00
2023-04-16T22:27:34.640Z,102068.66
2023-04-16T22:30:01.757Z,102064.53
2023-04-16T22:32:30.211Z,102064.66
2023-04-16T22:34:56.823Z,102065.09
2023-04-16T22:37:23.258Z,102071.63
2023-04-16T22:39:49.872Z,102072.88
2023-04-16T22:42:16.358Z,102072.06
2023-04-16T22:44:43.012Z,102068.09
2023-04-16T22:47:09.432Z,102064.44
2023-04-16T22:49:36.129Z,102069.78
2023-04-16T22:52:02.740Z,102067.38
2023-04-16T22:54:32.600Z,102064.97
2023-04-16T22:57:00.917Z,102066.69
2023-04-16T22:59:27.339Z,102077.31
2023-04-16T23:01:53.818Z,102070.00
2023-04-16T23:04:20.415Z,102057.88
2023-04-16T23:06:46.998Z,102069.31
2023-04-16T23:09:13.721Z,102060.72
2023-04-16T23:11:40.559Z,102070.91
2023-04-16T23:14:07.562Z,102064.50
2023-04-16T23:16:34.047Z,102071.13
2023-04-16T23:19:00.475Z,102065.78
2023-04-16T23:21:26.945Z,102069.06
2023-04-16T23:23:53.433Z,102068.25
2023-04-16T23:26:19.846Z,102069.53
2023-04-16T23:28:46.237Z,102074.88
2023-04-16T23:31:12.810Z,102073.28
2023-04-16T23:33:39.261Z,102073.75
2023-04-16T23:36:05.998Z,102072.94
2023-04-16T23:38:32.494Z,102068.13
2023-04-16T23:40:59.292Z,102068.94
2023-04-16T23:43:25.773Z,102075.09
2023-04-16T23:45:52.251Z,102079.66
2023-04-16T23:48:18.755Z,102080.47
2023-04-16T23:50:45.266Z,102078.06
2023-04-16T23:53:11.711Z,102081.38
2023-04-16T23:55:38.109Z,102076.56
2023-04-16T23:58:04.559Z,102079.75
